Time;durP1;ratioP1;P1;durP2;ratioP2;P2;SDS_P1;SDS_P2;PMS_P1;PMS_P2;Temp;Humidity;BMP_temperature;BMP_pressure;BME280_temperature;BME280_humidity;BME280_pressure;Samples;Min_cycle;Max_cycle;Signal;HPM_P1;HPM_P2
2024/01/21 00:02:10;;;;;;;1.70;0.80;;;;;;;-6.65;78.76;99048.94;6281637;28;20194;-90
2024/01/21 00:05:13;;;;;;;1.10;0.50;;;;;;;-7.08;78.92;99002.50;6274373;28;20273;-90
2024/01/21 00:08:16;;;;;;;1.27;0.77;;;;;;;-7.35;79.64;98970.56;6284062;28;20280;-90
2024/01/21 00:11:20;;;;;;;0.63;0.60;;;;;;;-7.34;79.83;99005.88;6293988;28;20202;-90
2024/01/21 00:14:23;;;;;;;0.33;0.33;;;;;;;-7.56;81.25;98988.28;6274146;28;20176;-90
2024/01/21 00:17:26;;;;;;;0.47;0.40;;;;;;;-7.34;81.39;99006.75;6259160;28;20205;-92
2024/01/21 00:20:30;;;;;;;0.73;0.37;;;;;;;-7.14;81.94;99041.72;6271116;28;20195;-92
2024/01/21 00:23:33;;;;;;;0.50;0.50;;;;;;;-7.83;81.36;98911.50;6288186;28;20221;-93
2024/01/21 00:26:35;;;;;;;0.73;0.50;;;;;;;-6.40;80.67;99144.09;6272414;28;20201;-91
2024/01/21 00:29:38;;;;;;;0.40;0.40;;;;;;;-6.84;82.19;99079.56;6259126;28;20249;-90
2024/01/21 00:32:42;;;;;;;0.50;0.40;;;;;;;-7.33;82.27;99034.28;6282356;28;20238;-89
2024/01/21 00:35:44;;;;;;;0.53;0.40;;;;;;;-7.37;82.96;99029.38;6289831;28;20213;-90
2024/01/21 00:38:47;;;;;;;0.93;0.50;;;;;;;-6.55;81.22;99125.16;6283428;28;20323;-93
2024/01/21 00:41:49;;;;;;;0.27;0.27;;;;;;;-6.85;82.34;99119.31;6279506;28;20679;-92
2024/01/21 00:45:06;;;;;;;0.30;0.30;;;;;;;-7.90;82.22;98951.56;6281391;28;20193;-93
2024/01/21 00:48:10;;;;;;;0.60;0.60;;;;;;;-6.73;83.03;99112.56;6281268;28;20197;-92
2024/01/21 00:51:12;;;;;;;0.63;0.50;;;;;;;-7.25;82.77;99031.19;6294285;28;20291;-92
2024/01/21 00:54:15;;;;;;;0.33;0.33;;;;;;;-7.47;83.14;99005.84;6278536;28;20190;-93
2024/01/21 00:57:17;;;;;;;0.47;0.40;;;;;;;-6.47;83.84;99168.72;6282500;28;20224;-93
2024/01/21 01:00:25;;;;;;;3.37;1.87;;;;;;;-6.66;83.25;99143.13;6273228;28;20186;-92
2024/01/21 01:03:28;;;;;;;1.43;0.90;;;;;;;-6.77;81.26;99080.81;6276688;28;20190;-93
2024/01/21 01:06:32;;;;;;;1.47;0.40;;;;;;;-7.12;81.73;99062.34;6298112;28;20217;-94
2024/01/21 01:09:36;;;;;;;0.30;0.30;;;;;;;-7.75;82.29;98954.13;6291929;28;20200;-94
2024/01/21 01:12:41;;;;;;;0.80;0.33;;;;;;;-8.35;83.31;98872.50;6277727;28;20194;-92
2024/01/21 01:15:44;;;;;;;1.07;0.30;;;;;;;-7.26;83.66;99052.84;6298648;28;20209;-93
2024/01/21 01:18:46;;;;;;;0.30;0.27;;;;;;;-7.01;83.44;99142.75;6295754;28;20194;-92
2024/01/21 01:21:50;;;;;;;0.97;0.30;;;;;;;-7.04;83.94;99084.25;6275756;28;20267;-96
2024/01/21 01:24:53;;;;;;;0.30;0.30;;;;;;;-6.61;83.36;99174.78;6282097;28;20198;-93
2024/01/21 01:27:56;;;;;;;0.90;0.40;;;;;;;-8.70;84.08;98885.84;6277159;28;20229;-92
2024/01/21 01:30:58;;;;;;;0.30;0.30;;;;;;;-8.87;83.92;98855.81;6272148;28;20214;-93
2024/01/21 01:34:02;;;;;;;1.17;0.30;;;;;;;-7.42;83.76;99058.13;6282362;28;20229;-93
2024/01/21 01:37:04;;;;;;;0.30;0.30;;;;;;;-6.82;84.54;99158.00;6294980;28;20216;-92
2024/01/21 01:40:07;;;;;;;0.40;0.30;;;;;;;-7.69;84.44;99049.47;6268814;28;20209;-93
2024/01/21 01:43:10;;;;;;;0.30;0.20;;;;;;;-7.91;84.92;99017.16;6293271;28;20191;-93
2024/01/21 01:46:13;;;;;;;0.20;0.20;;;;;;;-7.64;85.09;99031.91;6275268;28;20198;-93
2024/01/21 01:49:16;;;;;;;2.80;0.30;;;;;;;-7.14;86.00;99142.72;6293187;28;20245;-92
2024/01/21 01:52:18;;;;;;;0.30;0.30;;;;;;;-7.71;86.66;99053.91;6290286;28;20307;-91
2024/01/21 01:55:21;;;;;;;0.30;0.30;;;;;;;-7.90;86.63;99011.06;6274227;28;20592;-91
2024/01/21 01:58:26;;;;;;;0.30;0.30;;;;;;;-8.55;86.77;98906.50;6288303;28;20313;-91
2024/01/21 02:01:31;;;;;;;0.30;0.27;;;;;;;-7.21;86.63;99133.63;6278022;28;20206;-91
2024/01/21 02:04:34;;;;;;;1.47;0.33;;;;;;;-8.16;86.44;99007.47;6288611;28;20198;-91
2024/01/21 02:07:38;;;;;;;0.80;0.40;;;;;;;-7.82;85.36;99019.19;6281817;28;20191;-90
2024/01/21 02:10:41;;;;;;;2.50;0.37;;;;;;;-8.07;85.34;99013.84;6286047;28;20207;-91
2024/01/21 02:13:43;;;;;;;2.87;0.33;;;;;;;-7.63;85.53;99088.75;6271835;28;20231;-91
2024/01/21 02:16:45;;;;;;;1.73;0.40;;;;;;;-7.62;84.79;99074.88;6277990;28;20218;-93
2024/01/21 02:19:48;;;;;;;14.20;5.77;;;;;;;-7.36;85.42;99139.75;6278592;28;20205;-91
2024/01/21 02:22:51;;;;;;;6.77;2.20;;;;;;;-8.01;85.08;99021.22;6283402;28;20195;-89
2024/01/21 02:25:54;;;;;;;0.90;0.53;;;;;;;-8.06;85.78;99034.41;6271776;28;20190;-91
2024/01/21 02:28:56;;;;;;;0.40;0.33;;;;;;;-9.05;85.38;98898.22;6281085;28;20238;-90
2024/01/21 02:31:58;;;;;;;0.30;0.30;;;;;;;-8.82;85.31;98940.75;6290259;28;20202;-91
2024/01/21 02:35:01;;;;;;;0.50;0.20;;;;;;;-8.38;84.91;98960.56;6271753;28;20375;-91
2024/01/21 02:38:04;;;;;;;0.57;0.40;;;;;;;-9.03;84.98;98869.75;6286287;28;20203;-91
2024/01/21 02:41:06;;;;;;;0.80;0.30;;;;;;;-8.26;86.00;99050.28;6280881;28;20289;-91
2024/01/21 02:44:09;;;;;;;0.30;0.30;;;;;;;-8.19;86.26;99081.75;6277573;28;20195;-90
2024/01/21 02:47:11;;;;;;;0.70;0.20;;;;;;;-8.23;85.72;99057.00;6281510;28;20194;-91
2024/01/21 02:50:14;;;;;;;0.30;0.23;;;;;;;-7.54;85.26;99193.44;6278570;28;20198;-92
2024/01/21 02:53:16;;;;;;;0.50;0.20;;;;;;;-9.20;86.14;98936.06;6274676;28;20205;-91
2024/01/21 02:56:23;;;;;;;0.70;0.20;;;;;;;-7.02;84.82;99239.53;6286722;28;20216;-91
2024/01/21 02:59:25;;;;;;;0.20;0.20;;;;;;;-9.64;85.81;98854.28;6275631;28;20202;-93
2024/01/21 03:02:28;;;;;;;1.53;0.30;;;;;;;-8.89;85.47;98985.94;6283705;28;20256;-93
2024/01/21 03:05:30;;;;;;;0.50;0.43;;;;;;;-8.87;86.77;99003.00;6281555;28;20511;-93
2024/01/21 03:08:33;;;;;;;0.30;0.23;;;;;;;-9.44;88.06;98914.25;6281204;28;20195;-93
2024/01/21 03:11:38;;;;;;;1.97;0.40;;;;;;;-8.49;87.34;99054.22;6296864;28;20201;-94
2024/01/21 03:14:41;;;;;;;0.47;0.40;;;;;;;-8.55;88.41;99059.75;6285246;28;20210;-94
2024/01/21 03:17:43;;;;;;;0.50;0.30;;;;;;;-8.47;87.70;99091.16;6285995;28;20202;-92
2024/01/21 03:20:46;;;;;;;1.07;0.50;;;;;;;-9.50;86.98;98905.09;6290765;28;20202;-93
2024/01/21 03:23:50;;;;;;;0.40;0.40;;;;;;;-8.40;86.09;99097.63;6273437;28;20206;-94
2024/01/21 03:26:53;;;;;;;0.50;0.50;;;;;;;-8.85;85.14;99008.94;6292537;28;20193;-93
2024/01/21 03:29:55;;;;;;;0.57;0.30;;;;;;;-8.10;87.23;99151.03;6293342;28;20190;-93
2024/01/21 03:32:58;;;;;;;11.80;5.23;;;;;;;-8.57;86.81;99100.31;6278977;28;20302;-93
2024/01/21 03:36:01;;;;;;;1.30;0.63;;;;;;;-8.44;85.02;99111.63;6289856;28;20214;-93
2024/01/21 03:39:05;;;;;;;0.30;0.30;;;;;;;-9.40;86.02;98969.91;6279317;28;20204;-94
2024/01/21 03:42:07;;;;;;;0.30;0.30;;;;;;;-9.49;87.05;98960.09;6295091;28;20194;-93
2024/01/21 03:45:10;;;;;;;1.13;0.50;;;;;;;-9.02;85.42;99000.47;6292206;28;20209;-92
2024/01/21 03:48:13;;;;;;;0.27;0.27;;;;;;;-8.19;85.68;99126.53;6274286;28;20198;-92
2024/01/21 03:51:16;;;;;;;0.40;0.40;;;;;;;-8.18;85.30;99120.44;6273030;28;20202;-96
2024/01/21 03:54:18;;;;;;;0.70;0.37;;;;;;;-9.26;87.10;98967.41;6271613;28;20198;-92
2024/01/21 03:57:21;;;;;;;0.40;0.40;;;;;;;-8.42;86.95;99091.72;6280098;28;20217;-91
2024/01/21 04:00:24;;;;;;;0.30;0.30;;;;;;;-9.76;87.74;98939.22;6276539;28;20208;-91
2024/01/21 04:03:26;;;;;;;0.80;0.50;;;;;;;-8.44;88.20;99144.38;6272092;28;20211;-91
2024/01/21 04:06:37;;;;;;;0.97;0.40;;;;;;;-8.94;88.58;99071.41;6296662;28;20269;-90
2024/01/21 04:09:40;;;;;;;0.40;0.40;;;;;;;-9.77;86.88;98907.44;6294958;28;20268;-94
2024/01/21 04:12:42;;;;;;;0.43;0.43;;;;;;;-10.30;86.62;98882.84;6283662;28;20217;-93
2024/01/21 04:15:45;;;;;;;0.20;0.20;;;;;;;-8.64;87.84;99114.50;6282442;28;20225;-94
2024/01/21 04:18:49;;;;;;;0.50;0.43;;;;;;;-8.56;89.10;99138.19;6284101;28;20194;-93
2024/01/21 04:21:52;;;;;;;1.07;0.40;;;;;;;-8.78;87.49;99066.22;6285005;28;20763;-94
2024/01/21 04:24:55;;;;;;;0.57;0.37;;;;;;;-7.85;87.51;99212.50;6288202;28;20202;-94
2024/01/21 04:27:57;;;;;;;0.90;0.27;;;;;;;-9.32;87.19;98983.19;6282095;28;20224;-95
2024/01/21 04:31:00;;;;;;;0.57;0.30;;;;;;;-8.71;86.96;99113.19;6285489;28;20194;-95
2024/01/21 04:34:03;;;;;;;0.43;0.40;;;;;;;-8.88;86.56;99086.53;6276868;28;20222;-94
2024/01/21 04:37:06;;;;;;;1.03;0.40;;;;;;;-9.89;86.90;98908.13;6283004;28;20290;-94
2024/01/21 04:40:09;;;;;;;0.50;0.30;;;;;;;-8.55;88.22;99147.59;6264381;28;20203;-95
2024/01/21 04:43:11;;;;;;;0.30;0.30;;;;;;;-9.50;86.67;99003.09;6281943;28;20214;-95
2024/01/21 04:46:14;;;;;;;0.40;0.40;;;;;;;-9.02;86.34;99070.16;6266080;28;20248;-94
2024/01/21 04:49:17;;;;;;;0.30;0.30;;;;;;;-9.43;87.04;98988.13;6271019;28;20194;-95
2024/01/21 04:52:21;;;;;;;0.50;0.50;;;;;;;-7.89;88.40;99237.72;6268784;28;20199;-95
2024/01/21 04:55:23;;;;;;;0.50;0.50;;;;;;;-10.86;87.82;98770.84;6271491;28;20203;-95
2024/01/21 04:58:26;;;;;;;0.60;0.40;;;;;;;-10.61;86.61;98788.38;6265753;28;20210;-94
2024/01/21 05:01:28;;;;;;;0.60;0.50;;;;;;;-9.07;86.72;99038.59;6278877;28;20236;-95
2024/01/21 05:04:31;;;;;;;0.30;0.20;;;;;;;-9.34;86.05;98991.94;6272445;28;20202;-95
2024/01/21 05:07:35;;;;;;;1.23;1.00;;;;;;;-8.64;87.50;99102.41;6284985;28;20248;-95
2024/01/21 05:10:37;;;;;;;1.43;0.77;;;;;;;-10.44;88.77;98857.03;6262795;28;20221;-95
2024/01/21 05:13:41;;;;;;;0.50;0.43;;;;;;;-9.37;88.90;99047.09;6268306;28;20675;-95
2024/01/21 05:16:53;;;;;;;1.50;1.00;;;;;;;-9.47;89.88;99038.19;6267775;28;20287;-92
2024/01/21 05:19:56;;;;;;;1.57;0.73;;;;;;;-8.34;90.24;99226.44;6269092;28;20206;-92
2024/01/21 05:22:59;;;;;;;0.40;0.30;;;;;;;-8.94;89.25;99094.63;6283600;28;20206;-92
2024/01/21 05:26:02;;;;;;;0.83;0.30;;;;;;;-8.39;89.57;99201.81;6273022;28;20224;-92
2024/01/21 05:29:05;;;;;;;0.80;0.20;;;;;;;-9.14;89.34;99084.56;6269994;28;20224;-96
2024/01/21 05:32:07;;;;;;;0.97;0.33;;;;;;;-10.61;86.96;98875.91;6267250;28;20198;-94
2024/01/21 05:35:10;;;;;;;0.67;0.50;;;;;;;-9.87;87.31;98932.88;6272371;28;20194;-95
2024/01/21 05:38:13;;;;;;;0.40;0.40;;;;;;;-8.68;87.20;99141.41;6289823;28;20217;-94
2024/01/21 05:41:16;;;;;;;1.93;0.50;;;;;;;-8.60;86.99;99176.25;6280572;28;20331;-94
2024/01/21 05:44:19;;;;;;;0.30;0.30;;;;;;;-9.18;88.12;99044.38;6276508;28;20247;-95
2024/01/21 05:47:23;;;;;;;0.83;0.40;;;;;;;-9.14;87.01;99041.53;6292892;28;20205;-95
2024/01/21 05:50:26;;;;;;;0.73;0.27;;;;;;;-9.22;86.94;99060.94;6267620;28;20351;-92
2024/01/21 05:53:28;;;;;;;0.40;0.20;;;;;;;-9.36;88.36;99059.94;6280683;28;20194;-96
2024/01/21 05:56:31;;;;;;;1.60;0.33;;;;;;;-10.62;87.94;98910.31;6285285;28;20206;-93
2024/01/21 05:59:34;;;;;;;2.63;0.30;;;;;;;-10.14;88.48;98993.66;6275275;28;20187;-93
2024/01/21 06:02:36;;;;;;;0.73;0.20;;;;;;;-10.05;87.50;99003.44;6281212;28;20250;-93
2024/01/21 06:05:40;;;;;;;1.07;0.50;;;;;;;-9.50;87.20;99092.56;6291337;28;20699;-93
2024/01/21 06:08:44;;;;;;;0.30;0.30;;;;;;;-10.17;87.98;98988.63;6279032;28;20194;-93
2024/01/21 06:11:46;;;;;;;0.30;0.30;;;;;;;-9.28;86.69;99102.56;6278181;28;20200;-93
2024/01/21 06:14:49;;;;;;;2.17;1.00;;;;;;;-10.92;87.88;98818.31;6279589;28;20282;-93
2024/01/21 06:17:52;;;;;;;0.47;0.47;;;;;;;-9.42;87.08;99062.84;6282623;28;20224;-93
2024/01/21 06:20:55;;;;;;;0.90;0.40;;;;;;;-9.95;89.33;99025.28;6292668;28;20201;-92
2024/01/21 06:23:58;;;;;;;1.07;0.40;;;;;;;-8.90;89.43;99232.97;6296757;28;20202;-93
2024/01/21 06:27:01;;;;;;;0.40;0.30;;;;;;;-8.98;88.48;99182.66;6281861;28;20184;-94
2024/01/21 06:30:14;;;;;;;0.43;0.37;;;;;;;-8.53;88.06;99231.00;6283408;28;20213;-92
2024/01/21 06:33:18;;;;;;;0.83;0.50;;;;;;;-9.43;87.88;99080.97;6283058;28;20280;-93
2024/01/21 06:36:22;;;;;;;0.40;0.40;;;;;;;-10.74;88.97;98932.34;6285495;28;20216;-92
2024/01/21 06:39:25;;;;;;;0.30;0.30;;;;;;;-10.70;88.12;98941.56;6291632;28;20665;-92
2024/01/21 06:42:28;;;;;;;0.30;0.30;;;;;;;-9.37;89.28;99150.31;6298684;28;20201;-93
2024/01/21 06:45:31;;;;;;;0.47;0.40;;;;;;;-10.01;88.55;99025.56;6285365;28;20221;-93
2024/01/21 06:48:34;;;;;;;1.20;0.40;;;;;;;-8.88;88.20;99148.50;6277935;28;20285;-94
2024/01/21 06:51:46;;;;;;;0.40;0.40;;;;;;;-10.07;87.37;98953.75;6283887;28;20205;-93
2024/01/21 06:54:51;;;;;;;0.40;0.40;;;;;;;-8.96;87.89;99153.28;6279232;28;20308;-93
2024/01/21 06:57:58;;;;;;;0.40;0.40;;;;;;;-9.27;88.68;99104.22;6284735;28;20302;-93
2024/01/21 07:01:02;;;;;;;0.93;0.30;;;;;;;-8.56;89.13;99222.59;6295377;28;20518;-94
2024/01/21 07:04:05;;;;;;;0.37;0.37;;;;;;;-8.96;86.75;99152.44;6270880;28;20204;-93
2024/01/21 07:07:09;;;;;;;0.83;0.47;;;;;;;-10.05;88.21;98953.66;6291813;28;20197;-94
2024/01/21 07:10:13;;;;;;;0.70;0.50;;;;;;;-8.50;88.41;99137.81;6278349;28;20209;-94
2024/01/21 07:13:17;;;;;;;0.30;0.30;;;;;;;-8.19;90.36;99237.69;6292758;28;20195;-94
2024/01/21 07:16:20;;;;;;;0.70;0.53;;;;;;;-9.49;89.52;99037.47;6297186;28;20253;-95
2024/01/21 07:19:23;;;;;;;1.03;0.40;;;;;;;-10.45;89.61;98919.72;6283640;28;20190;-94
2024/01/21 07:22:26;;;;;;;0.67;0.60;;;;;;;-10.17;88.70;98919.06;6296966;28;20221;-95
2024/01/21 07:25:29;;;;;;;1.97;0.30;;;;;;;-7.96;87.41;99213.13;6285570;28;20690;-94
2024/01/21 07:28:31;;;;;;;1.43;0.40;;;;;;;-10.84;88.43;98712.38;6279267;28;20212;-93
2024/01/21 07:31:35;;;;;;;0.60;0.50;;;;;;;-9.31;90.02;99020.97;6274144;28;20211;-92
2024/01/21 07:34:37;;;;;;;1.07;0.67;;;;;;;-8.68;91.29;99113.84;6282888;28;20237;-93
2024/01/21 07:37:40;;;;;;;0.60;0.50;;;;;;;-10.37;90.71;98871.22;6278084;28;20225;-95
2024/01/21 07:40:43;;;;;;;0.60;0.50;;;;;;;-9.48;89.27;98956.59;6291292;28;20247;-94
2024/01/21 07:43:45;;;;;;;0.40;0.40;;;;;;;-9.66;87.97;98824.34;6282308;28;20195;-94
2024/01/21 07:46:53;;;;;;;1.70;0.40;;;;;;;-7.93;89.20;99225.03;6294428;28;20190;-96
2024/01/21 07:49:56;;;;;;;1.90;0.60;;;;;;;-9.99;89.22;98861.41;6274612;28;20295;-96
2024/01/21 07:52:58;;;;;;;0.83;0.77;;;;;;;-10.26;85.52;98754.72;6292639;28;20201;-94
2024/01/21 07:56:02;;;;;;;0.50;0.37;;;;;;;-8.18;86.74;99031.72;6275262;28;20197;-91
2024/01/21 07:59:06;;;;;;;1.03;0.63;;;;;;;-9.00;86.65;98971.06;6293364;28;20194;-87
2024/01/21 08:02:08;;;;;;;1.77;0.80;;;;;;;-9.10;85.52;98938.97;6299496;28;20287;-88
2024/01/21 08:05:13;;;;;;;4.27;1.10;;;;;;;-8.66;84.16;98985.47;6284545;28;20296;-87
2024/01/21 08:08:16;;;;;;;3.43;1.67;;;;;;;-7.85;82.61;99101.28;6303000;28;20187;-88
2024/01/21 08:11:19;;;;;;;1.60;1.10;;;;;;;-8.00;80.95;99069.41;6293479;28;20323;-87
2024/01/21 08:14:23;;;;;;;1.17;0.80;;;;;;;-8.32;80.08;98967.94;6288943;28;20197;-87
2024/01/21 08:17:25;;;;;;;4.80;0.77;;;;;;;-7.62;79.66;99059.38;6288236;28;20222;-87
2024/01/21 08:20:28;;;;;;;1.30;1.10;;;;;;;-7.67;81.92;98980.38;6265258;28;20210;-87
2024/01/21 08:23:30;;;;;;;0.67;0.60;;;;;;;-7.13;81.02;99066.69;6296914;28;20170;-88
2024/01/21 08:26:33;;;;;;;1.60;1.00;;;;;;;-7.32;82.76;99092.06;6285193;28;20293;-88
2024/01/21 08:29:39;;;;;;;1.87;1.03;;;;;;;-6.95;82.06;99163.09;6280254;28;20198;-87
2024/01/21 08:32:42;;;;;;;2.10;0.90;;;;;;;-7.20;83.78;99106.81;6285230;28;20406;-87
2024/01/21 08:35:45;;;;;;;2.43;0.73;;;;;;;-7.25;85.39;99110.63;6277406;28;20291;-86
2024/01/21 08:38:48;;;;;;;1.03;0.83;;;;;;;-7.31;86.16;99081.59;6266026;28;20212;-88
2024/01/21 08:41:50;;;;;;;1.53;0.80;;;;;;;-7.70;87.58;98983.13;6289910;28;20206;-86
2024/01/21 08:44:54;;;;;;;1.10;0.87;;;;;;;-7.96;88.41;98943.38;6303632;28;20202;-86
2024/01/21 08:47:57;;;;;;;1.20;1.00;;;;;;;-6.66;88.31;99143.13;6275547;28;20235;-94
2024/01/21 08:51:02;;;;;;;2.97;1.50;;;;;;;-6.89;88.10;99092.81;6282886;28;20662;-93
2024/01/21 08:54:05;;;;;;;1.20;0.90;;;;;;;-6.40;86.73;99158.78;6283189;28;20194;-93
2024/01/21 08:57:07;;;;;;;1.67;0.90;;;;;;;-7.55;84.03;98923.50;6280401;28;20214;-92
2024/01/21 09:00:11;;;;;;;1.67;0.70;;;;;;;-5.26;85.30;99223.84;6290898;28;20285;-92
2024/01/21 09:03:17;;;;;;;0.90;0.60;;;;;;;-6.06;81.78;99041.56;6281636;28;20287;-93
2024/01/21 09:06:20;;;;;;;2.87;0.57;;;;;;;-5.77;77.30;99038.69;6278375;28;20190;-93
2024/01/21 09:09:23;;;;;;;0.93;0.50;;;;;;;-6.11;79.05;98962.38;6295520;28;20288;-91
2024/01/21 09:12:25;;;;;;;0.77;0.60;;;;;;;-5.93;79.48;98962.88;6280331;28;20210;-92
2024/01/21 09:15:28;;;;;;;1.07;0.67;;;;;;;-3.77;81.78;99234.16;6286585;28;20205;-91
2024/01/21 09:18:31;;;;;;;2.43;0.80;;;;;;;-3.50;81.78;99223.47;6268161;28;20215;-84
2024/01/21 09:21:34;;;;;;;1.13;0.83;;;;;;;-3.79;79.49;99147.50;6293038;28;20297;-88
2024/01/21 09:24:37;;;;;;;1.40;1.10;;;;;;;-3.04;77.49;99214.78;6268646;28;20195;-86
2024/01/21 09:27:40;;;;;;;1.70;1.30;;;;;;;-4.17;76.86;98967.28;6285614;28;20449;-86
2024/01/21 09:30:43;;;;;;;1.90;1.20;;;;;;;-2.82;72.70;99164.41;6290167;28;20291;-86
2024/01/21 09:33:46;;;;;;;2.53;1.70;;;;;;;-2.54;71.12;99152.63;6297770;28;20283;-86
2024/01/21 09:36:51;;;;;;;3.60;2.03;;;;;;;-2.76;71.84;99083.88;6291997;28;20210;-87
2024/01/21 09:39:58;;;;;;;2.07;1.50;;;;;;;-2.71;70.44;99062.66;6279001;28;20635;-90
2024/01/21 09:43:01;;;;;;;3.23;1.60;;;;;;;-1.31;67.57;99223.44;6263418;28;20194;-89
2024/01/21 09:46:05;;;;;;;2.67;1.63;;;;;;;-1.37;69.04;99150.75;6283307;28;20190;-85
2024/01/21 09:49:10;;;;;;;2.30;1.80;;;;;;;-2.22;66.75;98956.88;6284500;28;20202;-86
2024/01/21 09:52:18;;;;;;;3.30;2.20;;;;;;;-1.58;65.88;99001.84;6282910;28;20325;-87
2024/01/21 09:55:23;;;;;;;2.37;1.60;;;;;;;-0.75;63.83;99075.66;6292057;28;20202;-86
2024/01/21 09:58:34;;;;;;;2.27;1.57;;;;;;;-1.12;60.94;99004.88;6279195;28;20215;-89
2024/01/21 10:01:40;;;;;;;3.73;1.47;;;;;;;-0.65;59.24;99076.50;6286065;28;20293;-88
2024/01/21 10:04:46;;;;;;;3.07;1.43;;;;;;;-0.91;60.33;99009.97;6273172;28;20202;-87
2024/01/21 10:07:50;;;;;;;2.47;1.70;;;;;;;-0.24;60.26;99129.59;6276755;28;20191;-88
2024/01/21 10:10:52;;;;;;;3.37;1.73;;;;;;;0.18;59.34;99184.31;6299407;28;20277;-88
2024/01/21 10:13:57;;;;;;;3.30;1.67;;;;;;;-0.07;61.57;99149.84;6273668;28;20202;-87
2024/01/21 10:17:00;;;;;;;3.23;2.13;;;;;;;-0.01;54.53;99109.19;6277984;28;20734;-88
2024/01/21 10:20:04;;;;;;;4.17;2.00;;;;;;;-0.32;56.77;99070.06;6298936;28;20194;-91
2024/01/21 10:23:11;;;;;;;4.03;2.20;;;;;;;0.51;53.14;99186.50;6282533;28;20243;-91
2024/01/21 10:26:14;;;;;;;2.00;1.20;;;;;;;-0.69;41.45;98930.38;6287029;28;20572;-89
2024/01/21 10:29:20;;;;;;;4.40;1.70;;;;;;;-0.30;44.68;98963.38;6276679;28;20636;-92
2024/01/21 10:32:22;;;;;;;2.40;1.50;;;;;;;-0.36;44.01;98966.56;6281133;28;20284;-92
2024/01/21 10:35:26;;;;;;;2.00;1.50;;;;;;;-0.50;44.31;98950.47;6313803;28;20229;-91
2024/01/21 10:38:34;;;;;;;2.93;1.33;;;;;;;-0.23;42.61;98939.28;6280714;28;20209;-91
2024/01/21 10:41:37;;;;;;;1.63;1.10;;;;;;;1.03;42.21;99096.84;6292764;28;20199;-90
2024/01/21 10:44:40;;;;;;;1.80;1.20;;;;;;;0.29;39.53;99002.50;6282810;28;20218;-90
2024/01/21 10:47:43;;;;;;;3.57;1.33;;;;;;;1.15;43.18;99103.56;6275591;28;20199;-90
2024/01/21 10:50:50;;;;;;;2.43;1.80;;;;;;;1.33;39.68;99110.66;6292734;28;20194;-90
2024/01/21 10:53:53;;;;;;;3.63;1.30;;;;;;;0.90;38.65;99047.38;6293207;28;20678;-90
2024/01/21 11:05:22;;;;;;;2.40;1.63;;;;;;;0.74;37.58;98973.75;6306107;28;20206;-89
2024/01/21 11:08:28;;;;;;;2.50;1.53;;;;;;;1.97;38.98;99135.91;6283500;28;20191;-90
2024/01/21 11:11:31;;;;;;;1.83;1.40;;;;;;;0.29;37.88;98826.94;6283094;28;20204;-91
2024/01/21 11:14:55;;;;;;;2.33;1.40;;;;;;;1.24;37.23;98981.97;6279386;28;20367;-90
2024/01/21 11:18:11;;;;;;;3.33;1.67;;;;;;;-0.33;39.74;98750.78;6299994;28;20232;-90
2024/01/21 11:21:19;;;;;;;1.90;1.43;;;;;;;1.10;37.49;98971.97;6292921;28;20703;-90
2024/01/21 11:24:31;;;;;;;2.90;1.60;;;;;;;0.90;36.91;98892.59;6295824;28;20207;-89
2024/01/21 11:27:34;;;;;;;3.40;1.90;;;;;;;1.39;37.05;99002.44;6280948;28;20187;-91
2024/01/21 11:30:40;;;;;;;4.00;1.90;;;;;;;0.41;40.84;98851.97;6292374;28;20191;-91
2024/01/21 11:33:42;;;;;;;3.03;1.93;;;;;;;1.47;39.26;99008.56;6297226;28;20234;-90
2024/01/21 11:36:46;;;;;;;2.27;1.50;;;;;;;0.64;40.13;98903.00;6298140;28;20199;-91
2024/01/21 11:39:49;;;;;;;3.30;1.67;;;;;;;-0.07;38.65;98735.19;6276246;28;20670;-89
2024/01/21 11:42:52;;;;;;;2.33;1.70;;;;;;;2.26;38.81;99101.47;6286167;28;20221;-90
2024/01/21 11:46:36;;;;;;;3.73;2.00;;;;;;;2.04;39.98;99094.91;6276891;28;20208;-90
2024/01/21 11:49:41;;;;;;;2.37;1.83;;;;;;;-1.07;39.59;98644.44;6190347;28;20344;-90
2024/01/21 11:52:45;;;;;;;2.90;1.80;;;;;;;0.75;38.71;98915.06;6196536;28;20201;-91
2024/01/21 11:55:47;;;;;;;3.23;1.87;;;;;;;1.52;39.76;99010.72;6198364;28;20191;-91
2024/01/21 11:59:21;;;;;;;3.43;2.03;;;;;;;0.68;40.92;98941.03;6201641;28;20224;-90
2024/01/21 12:02:27;;;;;;;3.23;2.20;;;;;;;0.49;41.98;98893.97;6196676;28;20212;-90
2024/01/21 12:06:33;;;;;;;2.90;2.40;;;;;;;1.83;42.66;99091.78;6180522;28;20348;-90
2024/01/21 12:09:42;;;;;;;3.83;2.40;;;;;;;-0.80;44.68;98670.56;6183980;28;20198;-90
2024/01/21 12:12:46;;;;;;;5.23;1.97;;;;;;;1.30;45.10;99025.16;6201799;28;20292;-91
2024/01/21 12:20:46;;;;;;;3.47;2.47;;;;;;;0.64;44.46;98926.59;6197324;28;20332;-91
2024/01/21 12:23:51;;;;;;;5.13;2.40;;;;;;;0.09;46.15;98834.91;6194336;28;20199;-91
2024/01/21 12:26:55;;;;;;;4.10;2.87;;;;;;;0.36;46.74;98886.47;6278111;28;20203;-88
2024/01/21 12:29:57;;;;;;;3.00;2.27;;;;;;;0.70;45.13;98915.53;6308507;28;20197;-87
2024/01/21 12:33:00;;;;;;;4.60;2.73;;;;;;;0.55;47.06;98871.59;6288873;28;20236;-87
2024/01/21 12:37:13;;;;;;;;;;;;;;;;;;;;;
2024/01/21 12:40:39;;;;;;;3.57;2.53;;;;;;;1.78;48.40;99085.19;6305137;28;20213;-89
2024/01/21 12:43:44;;;;;;;3.67;2.87;;;;;;;1.76;50.93;99087.13;6280414;28;20278;-87
2024/01/21 12:46:47;;;;;;;5.27;2.40;;;;;;;0.75;49.17;98936.88;6283182;28;20193;-90
2024/01/21 12:49:53;;;;;;;4.93;3.00;;;;;;;-0.94;48.59;98686.75;6279785;28;20291;-89
2024/01/21 12:52:57;;;;;;;4.43;2.70;;;;;;;1.06;48.34;98990.78;6270800;28;20190;-88
2024/01/21 12:56:03;;;;;;;4.13;2.77;;;;;;;1.66;48.92;99080.28;6278553;28;20275;-90
2024/01/21 12:59:06;;;;;;;4.27;2.70;;;;;;;0.66;50.41;98960.53;6280089;28;20210;-89
2024/01/21 13:02:10;;;;;;;3.87;2.77;;;;;;;-0.50;50.59;98809.97;6278641;28;20203;-92
2024/01/21 13:05:14;;;;;;;4.53;2.60;;;;;;;-0.67;50.77;98758.38;6281957;28;20787;-92
2024/01/21 13:08:16;;;;;;;3.13;2.30;;;;;;;-0.26;50.76;98872.28;6297114;28;20344;-93
2024/01/21 13:16:01;;;;;;;5.23;2.90;;;;;;;-1.18;50.72;98739.56;6209917;28;20198;-92
2024/01/21 13:19:04;;;;;;;4.80;2.60;;;;;;;0.42;51.21;98988.13;6206816;28;20223;-91
2024/01/21 13:22:07;;;;;;;6.17;3.87;;;;;;;0.99;51.11;99036.00;6198356;28;20196;-91
2024/01/21 13:25:10;;;;;;;5.30;3.53;;;;;;;0.24;51.36;98956.59;6197034;28;20204;-91
2024/01/21 13:28:14;;;;;;;4.07;3.37;;;;;;;0.22;52.40;98927.09;6186441;28;20373;-92
2024/01/21 13:31:17;;;;;;;5.63;3.27;;;;;;;0.33;51.52;98925.25;6189172;28;20211;-91
2024/01/21 13:34:23;;;;;;;5.50;3.33;;;;;;;0.36;53.24;98964.28;6208483;28;20265;-92
2024/01/21 13:37:27;;;;;;;5.03;2.90;;;;;;;-0.70;55.38;98821.47;6189847;28;20200;-86
2024/01/21 13:40:30;;;;;;;5.97;3.20;;;;;;;0.09;56.93;99018.28;6202538;28;20581;-86
2024/01/21 13:43:33;;;;;;;3.83;2.83;;;;;;;0.15;57.70;99030.84;6195394;28;20207;-89
2024/01/21 13:46:37;;;;;;;4.50;2.80;;;;;;;0.16;61.34;99065.72;6203056;28;20207;-88
2024/01/21 13:49:39;;;;;;;4.90;3.17;;;;;;;0.13;62.13;99069.44;6191610;28;20209;-88
2024/01/21 13:52:46;;;;;;;4.47;3.37;;;;;;;-0.52;61.29;98977.63;6272421;28;20266;-88
2024/01/21 13:55:49;;;;;;;5.30;3.80;;;;;;;-0.57;60.72;98974.59;6302570;28;20202;-90
2024/01/21 13:58:52;;;;;;;5.60;3.30;;;;;;;0.40;61.96;99123.75;6283980;28;20764;-89
2024/01/21 14:01:54;;;;;;;4.13;3.03;;;;;;;-0.74;62.18;98932.59;6266243;28;20607;-88
2024/01/21 14:05:10;;;;;;;4.90;3.57;;;;;;;-1.10;61.13;98880.03;6287294;28;20217;-88
2024/01/21 14:08:14;;;;;;;4.97;3.50;;;;;;;0.23;61.95;99093.84;6291298;28;20195;-93
2024/01/21 14:11:17;;;;;;;5.37;3.23;;;;;;;-0.06;63.02;99074.72;6295389;28;20576;-91
2024/01/21 14:14:19;;;;;;;5.60;3.50;;;;;;;-0.35;64.38;99024.97;6292202;28;20381;-91
2024/01/21 14:17:26;;;;;;;7.63;4.07;;;;;;;-1.71;65.52;98841.06;6294009;28;20195;-91
2024/01/21 14:20:28;;;;;;;5.13;3.50;;;;;;;-0.02;67.03;99144.19;6284696;28;20195;-89
2024/01/21 14:23:31;;;;;;;5.67;3.80;;;;;;;-1.28;68.15;99012.38;6291159;28;20615;-90
2024/01/21 14:26:39;;;;;;;4.83;3.37;;;;;;;-0.81;69.22;99084.06;6269867;28;20199;-89
2024/01/21 14:29:49;;;;;;;7.20;4.17;;;;;;;-1.15;70.19;99055.63;6285942;28;20240;-92
2024/01/21 14:32:51;;;;;;;5.03;3.50;;;;;;;-1.13;71.60;99050.28;6272128;28;20256;-91
2024/01/21 14:35:54;;;;;;;5.60;3.63;;;;;;;-2.16;71.84;98905.00;6267989;28;20199;-91
2024/01/21 14:38:59;;;;;;;7.57;3.80;;;;;;;-2.58;73.28;98841.59;6281907;28;20214;-90
2024/01/21 14:42:03;;;;;;;9.73;5.57;;;;;;;-1.47;72.78;99002.72;6280146;28;20759;-90
2024/01/21 14:45:06;;;;;;;7.13;3.90;;;;;;;-1.73;74.77;99039.72;6276084;28;20194;-92
2024/01/21 14:48:09;;;;;;;7.73;3.63;;;;;;;-3.28;76.14;98837.06;6285855;28;20210;-95
2024/01/21 14:51:12;;;;;;;4.87;3.97;;;;;;;-1.85;77.94;99072.94;6282602;28;20195;-85